createdAt,value
2018-02-10T00:00:27.062Z,0
2018-02-10T00:01:27.077Z,0
2018-02-10T00:02:27.079Z,0
2018-02-10T00:03:26.885Z,0
2018-02-10T00:04:27.113Z,0
2018-02-10T00:05:26.624Z,0
2018-02-10T00:06:27.153Z,0
2018-02-10T00:07:27.108Z,0
2018-02-10T00:08:26.929Z,0
2018-02-10T00:09:27.204Z,0
2018-02-10T00:10:27.201Z,0
2018-02-10T00:11:27.465Z,0
2018-02-10T00:12:27.231Z,0
2018-02-10T00:13:26.989Z,0
2018-02-10T00:14:27.000Z,0
2018-02-10T00:15:27.276Z,0
2018-02-10T00:16:27.532Z,0
2018-02-10T00:17:27.296Z,0
2018-02-10T00:18:27.061Z,0
2018-02-10T00:19:27.323Z,0
2018-02-10T00:20:27.346Z,0
2018-02-10T00:21:27.600Z,0
2018-02-10T00:22:27.109Z,0
2018-02-10T00:23:26.876Z,0
2018-02-10T00:24:27.391Z,0
2018-02-10T00:25:27.150Z,0
2018-02-10T00:26:26.915Z,0
2018-02-10T00:27:27.437Z,0
2018-02-10T00:28:27.206Z,0
2018-02-10T00:29:27.461Z,0
2018-02-10T00:30:27.223Z,0
2018-02-10T00:31:27.239Z,0
2018-02-10T00:32:27.255Z,0
2018-02-10T00:33:27.516Z,0
2018-02-10T00:34:27.278Z,0
2018-02-10T00:35:27.798Z,0
2018-02-10T00:36:27.558Z,0
2018-02-10T00:37:27.573Z,0
2018-02-10T00:38:27.586Z,0
2018-02-10T00:39:27.595Z,0
2018-02-10T00:40:27.418Z,0
2018-02-10T00:41:27.381Z,0
2018-02-10T00:42:27.645Z,0
2018-02-10T00:43:27.649Z,0
2018-02-10T00:44:27.670Z,0
2018-02-10T00:45:27.692Z,0
2018-02-10T00:46:27.698Z,0
2018-02-10T00:47:27.716Z,0
2018-02-10T00:48:27.744Z,0
2018-02-10T00:49:27.743Z,0
2018-02-10T00:50:28.006Z,0
2018-02-10T00:51:27.769Z,0
2018-02-10T00:52:27.784Z,0
2018-02-10T00:53:27.538Z,0
2018-02-10T00:54:27.556Z,0
2018-02-10T00:55:27.568Z,0
2018-02-10T00:56:27.583Z,0
2018-02-10T00:57:28.115Z,0
2018-02-10T00:58:27.864Z,0
2018-02-10T00:59:27.876Z,0
2018-02-10T01:00:27.645Z,0
2018-02-10T01:01:27.653Z,0
2018-02-10T01:02:27.665Z,0
2018-02-10T01:03:27.681Z,0
2018-02-10T01:04:27.945Z,0
2018-02-10T01:05:27.966Z,0
2018-02-10T01:06:28.221Z,0
2018-02-10T01:07:28.235Z,0
2018-02-10T01:08:28.014Z,0
2018-02-10T01:09:27.758Z,0
2018-02-10T01:10:28.277Z,0
2018-02-10T01:11:27.806Z,0
2018-02-10T01:12:28.087Z,0
2018-02-10T01:13:27.812Z,0
2018-02-10T01:14:28.080Z,0
2018-02-10T01:15:27.856Z,0
2018-02-10T01:16:28.359Z,0
2018-02-10T01:17:27.877Z,0
2018-02-10T01:18:27.886Z,0
2018-02-10T01:19:28.398Z,0
2018-02-10T01:20:27.909Z,0
2018-02-10T01:21:28.223Z,0
2018-02-10T01:22:28.483Z,0
2018-02-10T01:23:28.450Z,0
2018-02-10T01:24:28.458Z,0
2018-02-10T01:25:27.739Z,0
2018-02-10T01:26:27.990Z,0
2018-02-10T01:27:28.005Z,0
2018-02-10T01:28:28.262Z,0
2018-02-10T01:29:28.049Z,0
2018-02-10T01:30:28.293Z,0
2018-02-10T01:31:28.310Z,0
2018-02-10T01:32:28.375Z,0
2018-02-10T01:33:28.079Z,0
2018-02-10T01:34:28.352Z,0
2018-02-10T01:35:28.572Z,0
2018-02-10T01:36:28.766Z,0
2018-02-10T01:37:28.389Z,0
2018-02-10T01:38:28.152Z,0
2018-02-10T01:39:28.398Z,0
2018-02-10T01:40:28.430Z,0
2018-02-10T01:41:28.441Z,0
2018-02-10T01:42:28.485Z,0
2018-02-10T01:43:28.465Z,0
2018-02-10T01:44:28.479Z,0
2018-02-10T01:45:28.742Z,0
2018-02-10T01:46:28.503Z,0
2018-02-10T01:47:28.286Z,0
2018-02-10T01:48:28.287Z,0
2018-02-10T01:49:28.548Z,0
2018-02-10T01:50:28.604Z,0
2018-02-10T01:51:28.343Z,0
2018-02-10T01:52:28.333Z,0
2018-02-10T01:53:28.863Z,0
2018-02-10T01:54:28.358Z,0
2018-02-10T01:55:28.619Z,0
2018-02-10T01:56:28.636Z,0
2018-02-10T01:57:28.667Z,0
2018-02-10T01:58:28.664Z,0
2018-02-10T01:59:28.930Z,0
2018-02-10T02:00:28.434Z,0
2018-02-10T02:01:28.447Z,0
2018-02-10T02:02:28.710Z,0
2018-02-10T02:03:28.728Z,0
2018-02-10T02:04:28.490Z,0
2018-02-10T02:05:28.506Z,0
2018-02-10T02:06:28.765Z,0
2018-02-10T02:07:28.277Z,0
2018-02-10T02:08:28.802Z,0
2018-02-10T02:09:28.800Z,0
2018-02-10T02:10:28.570Z,0
2018-02-10T02:11:28.841Z,0
2018-02-10T02:12:28.849Z,0
2018-02-10T02:13:28.864Z,0
2018-02-10T02:14:28.622Z,0
2018-02-10T02:15:28.633Z,0
2018-02-10T02:16:29.153Z,0
2018-02-10T02:17:29.163Z,0
2018-02-10T02:18:28.417Z,0
2018-02-10T02:19:28.680Z,0
2018-02-10T02:20:29.247Z,0
2018-02-10T02:21:28.457Z,0
2018-02-10T02:22:29.223Z,0
2018-02-10T02:23:28.988Z,0
2018-02-10T02:24:28.744Z,0
2018-02-10T02:25:28.808Z,0
2018-02-10T02:26:28.790Z,0
2018-02-10T02:27:28.784Z,0
2018-02-10T02:28:29.060Z,0
2018-02-10T02:29:28.561Z,0
2018-02-10T02:30:29.100Z,0
2018-02-10T02:31:29.093Z,0
2018-02-10T02:32:29.121Z,0
2018-02-10T02:33:29.116Z,0
2018-02-10T02:34:29.388Z,0
2018-02-10T02:35:29.156Z,0
2018-02-10T02:36:28.907Z,0
2018-02-10T02:37:29.176Z,0
2018-02-10T02:38:28.932Z,0
2018-02-10T02:39:29.203Z,0
2018-02-10T02:40:28.965Z,0
2018-02-10T02:41:29.226Z,0
2018-02-10T02:42:29.241Z,0
2018-02-10T02:43:29.266Z,0
2018-02-10T02:44:29.518Z,0
2018-02-10T02:45:29.025Z,0
2018-02-10T02:46:29.536Z,0
2018-02-10T02:47:29.050Z,0
2018-02-10T02:48:29.312Z,0
2018-02-10T02:49:29.337Z,0
2018-02-10T02:50:29.344Z,0
2018-02-10T02:51:29.109Z,0
2018-02-10T02:52:29.365Z,0
2018-02-10T02:53:29.632Z,0
2018-02-10T02:54:29.148Z,0
2018-02-10T02:55:29.409Z,0
2018-02-10T02:56:29.421Z,0
2018-02-10T02:57:28.926Z,0
2018-02-10T02:58:29.191Z,0
2018-02-10T02:59:29.706Z,0
2018-02-10T03:00:29.232Z,0
2018-02-10T03:01:29.745Z,0
2018-02-10T03:02:29.495Z,0
2018-02-10T03:03:29.759Z,0
2018-02-10T03:04:29.525Z,0
2018-02-10T03:05:29.031Z,0
2018-02-10T03:06:29.292Z,0
2018-02-10T03:07:29.330Z,0
2018-02-10T03:08:29.892Z,0
2018-02-10T03:09:29.337Z,0
2018-02-10T03:10:29.347Z,0
2018-02-10T03:11:29.882Z,0
2018-02-10T03:12:29.373Z,0
2018-02-10T03:13:29.390Z,0
2018-02-10T03:14:29.397Z,0
2018-02-10T03:15:29.673Z,0
2018-02-10T03:16:29.408Z,0
2018-02-10T03:17:29.678Z,0
2018-02-10T03:18:29.686Z,0
2018-02-10T03:19:29.453Z,0
2018-02-10T03:20:29.461Z,0
2018-02-10T03:21:29.511Z,0
2018-02-10T03:22:29.754Z,0
2018-02-10T03:23:29.768Z,0
2018-02-10T03:24:29.527Z,0
2018-02-10T03:25:29.794Z,0
2018-02-10T03:26:29.302Z,0
2018-02-10T03:27:29.585Z,0
2018-02-10T03:28:30.083Z,0
2018-02-10T03:29:29.918Z,0
2018-02-10T03:30:29.885Z,0
2018-02-10T03:31:29.639Z,0
2018-02-10T03:32:30.139Z,0
2018-02-10T03:33:29.638Z,0
2018-02-10T03:34:29.898Z,0
2018-02-10T03:35:29.914Z,0
2018-02-10T03:36:29.684Z,0
2018-02-10T03:37:29.957Z,0
2018-02-10T03:38:29.953Z,0
2018-02-10T03:39:30.222Z,0
2018-02-10T03:40:30.233Z,0
2018-02-10T03:41:29.737Z,0
2018-02-10T03:42:30.257Z,0
2018-02-10T03:43:30.020Z,0
2018-02-10T03:44:30.037Z,0
2018-02-10T03:45:30.062Z,0
2018-02-10T03:46:30.106Z,0
2018-02-10T03:47:30.078Z,0
2018-02-10T03:48:30.083Z,0
2018-02-10T03:49:29.860Z,0
2018-02-10T03:50:30.403Z,0
2018-02-10T03:51:30.142Z,0
2018-02-10T03:52:29.885Z,0
2018-02-10T03:53:29.642Z,0
2018-02-10T03:54:29.908Z,0
2018-02-10T03:55:29.930Z,0
2018-02-10T03:56:29.948Z,0
2018-02-10T03:57:29.955Z,0
2018-02-10T03:58:29.961Z,0
2018-02-10T03:59:30.474Z,0
2018-02-10T04:00:30.491Z,0
2018-02-10T04:01:29.993Z,0
2018-02-10T04:02:30.261Z,0
2018-02-10T04:03:30.026Z,0
2018-02-10T04:04:30.035Z,0
2018-02-10T04:05:30.044Z,0
2018-02-10T04:06:30.311Z,0
2018-02-10T04:07:30.325Z,0
2018-02-10T04:08:30.700Z,0
2018-02-10T04:09:30.371Z,0
2018-02-10T04:10:30.109Z,0
2018-02-10T04:11:30.125Z,0
2018-02-10T04:12:30.393Z,0
2018-02-10T04:13:30.407Z,0
2018-02-10T04:14:30.162Z,0
2018-02-10T04:15:30.691Z,0
2018-02-10T04:16:30.189Z,0
2018-02-10T04:17:30.714Z,0
2018-02-10T04:18:30.210Z,0
2018-02-10T04:19:30.728Z,0
2018-02-10T04:20:30.752Z,0
2018-02-10T04:21:30.505Z,0
2018-02-10T04:22:30.267Z,0
2018-02-10T04:23:30.278Z,0
2018-02-10T04:24:30.796Z,0
2018-02-10T04:25:30.553Z,0
2018-02-10T04:26:30.315Z,0
2018-02-10T04:27:30.585Z,0
2018-02-10T04:28:30.592Z,0
2018-02-10T04:29:30.604Z,0
2018-02-10T04:30:30.368Z,0
2018-02-10T04:31:30.633Z,0
2018-02-10T04:32:30.647Z,0
2018-02-10T04:33:30.149Z,0
2018-02-10T04:34:30.666Z,0
2018-02-10T04:35:30.684Z,0
2018-02-10T04:36:30.939Z,0
2018-02-10T04:37:30.712Z,0
2018-02-10T04:38:30.267Z,0
2018-02-10T04:39:30.752Z,0
2018-02-10T04:40:31.008Z,0
2018-02-10T04:41:30.756Z,0
2018-02-10T04:42:30.767Z,0
2018-02-10T04:43:30.529Z,0
2018-02-10T04:44:30.545Z,0
2018-02-10T04:45:30.557Z,0
2018-02-10T04:46:30.819Z,0
2018-02-10T04:47:30.579Z,0
2018-02-10T04:48:31.097Z,0
2018-02-10T04:49:30.871Z,0
2018-02-10T04:50:30.867Z,0
2018-02-10T04:51:30.880Z,0
2018-02-10T04:52:30.391Z,0
2018-02-10T04:53:30.954Z,0
2018-02-10T04:54:30.918Z,0
2018-02-10T04:55:31.185Z,0
2018-02-10T04:56:30.691Z,0
2018-02-10T04:57:31.049Z,0
2018-02-10T04:58:30.969Z,0
2018-02-10T04:59:30.478Z,0
2018-02-10T05:00:31.009Z,0
2018-02-10T05:01:31.004Z,0
2018-02-10T05:02:30.523Z,0
2018-02-10T05:03:31.051Z,0
2018-02-10T05:04:31.049Z,0
2018-02-10T05:05:31.073Z,0
2018-02-10T05:06:30.816Z,0
2018-02-10T05:07:31.341Z,0
2018-02-10T05:08:30.847Z,0
2018-02-10T05:09:30.858Z,0
2018-02-10T05:10:31.126Z,0
2018-02-10T05:11:31.385Z,0
2018-02-10T05:12:30.894Z,0
2018-02-10T05:13:31.157Z,0
2018-02-10T05:14:31.175Z,0
2018-02-10T05:15:30.944Z,0
2018-02-10T05:16:31.449Z,0
2018-02-10T05:17:31.462Z,0
2018-02-10T05:18:31.482Z,0
2018-02-10T05:19:30.989Z,0
2018-02-10T05:20:31.249Z,0
2018-02-10T05:21:30.754Z,0
2018-02-10T05:22:31.019Z,0
2018-02-10T05:23:31.278Z,0
2018-02-10T05:24:31.298Z,0
2018-02-10T05:25:31.605Z,0
2018-02-10T05:26:31.314Z,0
2018-02-10T05:27:31.381Z,0
2018-02-10T05:28:31.088Z,0
2018-02-10T05:29:31.115Z,0
2018-02-10T05:30:31.368Z,0
2018-02-10T05:31:31.396Z,0
2018-02-10T05:32:31.145Z,0
2018-02-10T05:33:31.409Z,0
2018-02-10T05:34:31.439Z,0
2018-02-10T05:35:31.188Z,0
2018-02-10T05:36:31.450Z,0
2018-02-10T05:37:30.980Z,0
2018-02-10T05:38:31.235Z,0
2018-02-10T05:39:30.984Z,0
2018-02-10T05:40:31.252Z,0
2018-02-10T05:41:31.262Z,0
2018-02-10T05:42:31.552Z,0
2018-02-10T05:43:31.290Z,0
2018-02-10T05:44:31.644Z,0
2018-02-10T05:45:31.313Z,0
2018-02-10T05:46:31.576Z,0
2018-02-10T05:47:31.364Z,0
2018-02-10T05:48:31.097Z,0
2018-02-10T05:49:31.865Z,0
2018-02-10T05:50:31.381Z,0
2018-02-10T05:51:31.883Z,0
2018-02-10T05:52:31.407Z,0
2018-02-10T05:53:31.973Z,0
2018-02-10T05:54:31.431Z,0
2018-02-10T05:55:31.947Z,0
2018-02-10T05:56:31.952Z,0
2018-02-10T05:57:31.467Z,0
2018-02-10T05:58:31.987Z,0
2018-02-10T05:59:31.495Z,0
2018-02-10T06:00:31.754Z,0
2018-02-10T06:01:31.785Z,0
2018-02-10T06:02:31.533Z,0
2018-02-10T06:03:31.296Z,0
2018-02-10T06:04:31.806Z,0
2018-02-10T06:05:31.567Z,4
2018-02-10T06:06:32.090Z,0
2018-02-10T06:07:31.602Z,0
2018-02-10T06:08:31.853Z,4
2018-02-10T06:09:31.872Z,4
2018-02-10T06:10:31.633Z,4
2018-02-10T06:11:31.648Z,4
2018-02-10T06:12:32.194Z,4
2018-02-10T06:13:31.420Z,8
2018-02-10T06:14:32.141Z,4
2018-02-10T06:15:32.204Z,4
2018-02-10T06:16:31.963Z,12
2018-02-10T06:17:31.730Z,12
2018-02-10T06:18:31.986Z,12
2018-02-10T06:19:31.496Z,12
2018-02-10T06:20:31.789Z,16
2018-02-10T06:21:32.033Z,16
2018-02-10T06:22:32.041Z,20
2018-02-10T06:23:31.551Z,24
2018-02-10T06:24:32.067Z,28
2018-02-10T06:25:32.100Z,28
2018-02-10T06:26:32.373Z,32
2018-02-10T06:27:32.109Z,36
2018-02-10T06:28:31.870Z,40
2018-02-10T06:29:31.631Z,40
2018-02-10T06:30:32.407Z,44
2018-02-10T06:31:32.156Z,48
2018-02-10T06:32:32.260Z,52
2018-02-10T06:33:31.937Z,56
2018-02-10T06:34:31.944Z,60
2018-02-10T06:35:32.212Z,64
2018-02-10T06:36:32.482Z,68
2018-02-10T06:37:32.244Z,72
2018-02-10T06:38:31.999Z,76
2018-02-10T06:39:32.289Z,80
2018-02-10T06:40:32.305Z,88
2018-02-10T06:41:32.288Z,96
2018-02-10T06:42:32.308Z,100
2018-02-10T06:43:32.069Z,108
2018-02-10T06:44:32.330Z,112
2018-02-10T06:45:32.352Z,120
2018-02-10T06:46:32.602Z,128
2018-02-10T06:47:32.365Z,136
2018-02-10T06:48:32.382Z,140
2018-02-10T06:49:32.395Z,148
2018-02-10T06:50:32.668Z,152
2018-02-10T06:51:32.417Z,160
2018-02-10T06:52:32.435Z,168
2018-02-10T06:53:32.449Z,176
2018-02-10T06:54:32.209Z,184
2018-02-10T06:55:32.225Z,192
2018-02-10T06:56:32.486Z,196
2018-02-10T06:57:32.494Z,208
2018-02-10T06:58:32.278Z,216
2018-02-10T06:59:32.531Z,224
2018-02-10T07:00:32.041Z,228
2018-02-10T07:01:32.049Z,236
2018-02-10T07:02:32.309Z,248
2018-02-10T07:03:32.084Z,256
2018-02-10T07:04:32.096Z,268
2018-02-10T07:05:32.603Z,280
2018-02-10T07:07:32.374Z,296
2018-02-10T07:08:32.390Z,308
2018-02-10T07:09:32.416Z,320
2018-02-10T07:10:32.671Z,336
2018-02-10T07:11:32.428Z,348
2018-02-10T07:12:32.955Z,364
2018-02-10T07:13:32.948Z,380
2018-02-10T07:14:32.460Z,404
2018-02-10T07:15:32.728Z,420
2018-02-10T07:16:32.496Z,440
2018-02-10T07:17:33.020Z,452
2018-02-10T07:18:32.516Z,476
2018-02-10T07:19:32.536Z,500
2018-02-10T07:20:32.548Z,528
2018-02-10T07:21:32.307Z,552
2018-02-10T07:22:32.842Z,572
2018-02-10T07:23:33.088Z,596
2018-02-10T07:24:32.854Z,620
2018-02-10T07:25:32.862Z,648
2018-02-10T07:26:32.878Z,680
2018-02-10T07:27:33.147Z,704
2018-02-10T07:28:32.907Z,724
2018-02-10T07:29:32.924Z,736
2018-02-10T07:30:32.684Z,752
2018-02-10T07:31:32.459Z,772
2018-02-10T07:32:33.216Z,800
2018-02-10T07:33:33.225Z,824
2018-02-10T07:34:32.979Z,844
2018-02-10T07:35:32.997Z,860
2018-02-10T07:36:33.015Z,884
2018-02-10T07:37:32.771Z,904
2018-02-10T07:38:33.044Z,932
2018-02-10T07:39:32.793Z,976
2018-02-10T07:40:33.310Z,1020
2018-02-10T07:41:32.820Z,1076
2018-02-10T07:42:33.082Z,1136
2018-02-10T07:43:33.358Z,1204
2018-02-10T07:44:33.110Z,1260
2018-02-10T07:45:32.621Z,1308
2018-02-10T07:46:33.393Z,1356
2018-02-10T07:47:33.408Z,1396
2018-02-10T07:48:33.425Z,1440
2018-02-10T07:49:33.175Z,1492
2018-02-10T07:50:32.943Z,1544
2018-02-10T07:51:32.953Z,1588
2018-02-10T07:52:33.224Z,1620
2018-02-10T07:53:32.975Z,1648
2018-02-10T07:54:33.249Z,1664
2018-02-10T07:55:33.007Z,1672
2018-02-10T07:56:33.523Z,1676
2018-02-10T07:57:33.036Z,1680
2018-02-10T07:58:33.296Z,1692
2018-02-10T07:59:33.058Z,1720
2018-02-10T08:00:33.083Z,1744
2018-02-10T08:01:33.334Z,1780
2018-02-10T08:02:33.355Z,1808
2018-02-10T08:03:33.377Z,1824
2018-02-10T08:04:33.126Z,1836
2018-02-10T08:05:33.394Z,1844
2018-02-10T08:06:33.146Z,1848
2018-02-10T08:07:33.698Z,1856
2018-02-10T08:08:33.425Z,1888
2018-02-10T08:09:33.438Z,1940
2018-02-10T08:10:33.250Z,1988
2018-02-10T08:11:33.217Z,2028
2018-02-10T08:12:33.749Z,2064
2018-02-10T08:13:33.754Z,2092
2018-02-10T08:14:33.784Z,2120
2018-02-10T08:15:33.264Z,2140
2018-02-10T08:16:33.535Z,2156
2018-02-10T08:17:33.797Z,2172
2018-02-10T08:18:33.558Z,2176
2018-02-10T08:19:33.572Z,2200
2018-02-10T08:20:33.865Z,2240
2018-02-10T08:21:33.347Z,2272
2018-02-10T08:22:33.120Z,2268
2018-02-10T08:23:33.375Z,2244
2018-02-10T08:24:33.387Z,2228
2018-02-10T08:25:33.655Z,2216
2018-02-10T08:26:33.413Z,2200
2018-02-10T08:27:33.426Z,2188
2018-02-10T08:28:33.202Z,2180
2018-02-10T08:29:33.210Z,2172
2018-02-10T08:30:33.721Z,2160
2018-02-10T08:31:33.540Z,2160
2018-02-10T08:32:34.004Z,2176
2018-02-10T08:33:33.761Z,2192
2018-02-10T08:34:33.525Z,2192
2018-02-10T08:35:33.285Z,2108
2018-02-10T08:36:34.001Z,2208
2018-02-10T08:37:33.560Z,2236
2018-02-10T08:38:33.573Z,2272
2018-02-10T08:39:33.588Z,2336
2018-02-10T08:40:34.104Z,2416
2018-02-10T08:41:33.612Z,2544
2018-02-10T08:42:33.876Z,2696
2018-02-10T08:43:33.893Z,2840
2018-02-10T08:44:33.654Z,2988
2018-02-10T08:45:33.689Z,3112
2018-02-10T08:46:34.129Z,3212
2018-02-10T08:47:33.705Z,3312
2018-02-10T08:48:34.209Z,3380
2018-02-10T08:49:33.969Z,3416
2018-02-10T08:50:34.256Z,3440
2018-02-10T08:51:33.498Z,3440
2018-02-10T08:52:34.273Z,3412
2018-02-10T08:53:33.764Z,3364
2018-02-10T08:54:34.032Z,3328
2018-02-10T08:55:34.051Z,3308
2018-02-10T08:56:34.064Z,3312
2018-02-10T08:57:33.824Z,3336
2018-02-10T08:58:34.344Z,3360
2018-02-10T08:59:33.852Z,3376
2018-02-10T09:00:33.613Z,3400
2018-02-10T09:01:34.182Z,3444
2018-02-10T09:02:34.397Z,3500
2018-02-10T09:03:33.905Z,3532
2018-02-10T09:04:33.938Z,3548
2018-02-10T09:05:34.186Z,3564
2018-02-10T09:06:33.702Z,3548
2018-02-10T09:07:34.528Z,3588
2018-02-10T09:08:33.719Z,3564
2018-02-10T09:09:33.990Z,3532
2018-02-10T09:10:33.999Z,3552
2018-02-10T09:11:34.271Z,3564
2018-02-10T09:12:34.283Z,3576
2018-02-10T09:13:34.290Z,3560
2018-02-10T09:14:34.059Z,3536
2018-02-10T09:15:34.072Z,3496
2018-02-10T09:16:34.329Z,3472
2018-02-10T09:17:34.364Z,3432
2018-02-10T09:18:34.357Z,3400
2018-02-10T09:19:34.122Z,3380
2018-02-10T09:20:34.419Z,3328
2018-02-10T09:21:34.652Z,3296
2018-02-10T09:22:34.660Z,3308
2018-02-10T09:23:34.432Z,3328
2018-02-10T09:24:34.446Z,3368
2018-02-10T09:25:34.201Z,3404
2018-02-10T09:26:34.487Z,3468
2018-02-10T09:27:34.485Z,3536
2018-02-10T09:28:34.751Z,3640
2018-02-10T09:29:34.510Z,3764
2018-02-10T09:30:34.767Z,3848
2018-02-10T09:31:34.785Z,3864
2018-02-10T09:32:34.544Z,3856
2018-02-10T09:33:34.311Z,3860
2018-02-10T09:34:34.321Z,3884
2018-02-10T09:35:34.582Z,3936
2018-02-10T09:36:34.849Z,3968
2018-02-10T09:37:34.367Z,3980
2018-02-10T09:38:34.624Z,3948
2018-02-10T09:39:34.140Z,3888
2018-02-10T09:40:34.661Z,3816
2018-02-10T09:41:34.414Z,3744
2018-02-10T09:42:34.177Z,3684
2018-02-10T09:43:34.694Z,3680
2018-02-10T09:44:34.958Z,3704
2018-02-10T09:45:34.977Z,3756
2018-02-10T09:46:34.987Z,3816
2018-02-10T09:47:34.995Z,3896
2018-02-10T09:48:34.759Z,3988
2018-02-10T09:49:34.308Z,4100
2018-02-10T09:50:34.284Z,4200
2018-02-10T09:51:34.800Z,4288
2018-02-10T09:52:35.064Z,4388
2018-02-10T09:53:34.851Z,4504
2018-02-10T09:54:34.841Z,4708
2018-02-10T09:55:34.856Z,4960
2018-02-10T09:56:34.866Z,5144
2018-02-10T09:57:34.878Z,5204
2018-02-10T09:58:34.893Z,5160
2018-02-10T09:59:35.152Z,4996
2018-02-10T10:00:34.916Z,4800
2018-02-10T10:01:34.938Z,4584
2018-02-10T10:02:35.223Z,4440
2018-02-10T10:03:34.964Z,4360
2018-02-10T10:04:34.480Z,4344
2018-02-10T10:05:35.242Z,4384
2018-02-10T10:06:34.771Z,4436
2018-02-10T10:07:34.772Z,4496
2018-02-10T10:08:35.050Z,4568
2018-02-10T10:09:35.053Z,4248
2018-02-10T10:10:35.061Z,4940
2018-02-10T10:11:34.823Z,5328
2018-02-10T10:12:35.098Z,5784
2018-02-10T10:13:34.855Z,6140
2018-02-10T10:14:35.371Z,6336
2018-02-10T10:15:34.883Z,6412
2018-02-10T10:16:35.165Z,6360
2018-02-10T10:17:34.914Z,6248
2018-02-10T10:18:35.171Z,6180
2018-02-10T10:19:35.208Z,6148
2018-02-10T10:20:35.460Z,6128
2018-02-10T10:21:34.961Z,6128
2018-02-10T10:22:35.481Z,6072
2018-02-10T10:23:35.494Z,6012
2018-02-10T10:24:35.013Z,5984
2018-02-10T10:25:35.026Z,5920
2018-02-10T10:26:35.291Z,5860
2018-02-10T10:27:35.064Z,5780
2018-02-10T10:28:35.066Z,5736
2018-02-10T10:29:35.336Z,5700
2018-02-10T10:30:35.344Z,5632
2018-02-10T10:31:35.607Z,5540
2018-02-10T10:32:35.121Z,5424
2018-02-10T10:33:35.650Z,5288
2018-02-10T10:34:35.398Z,5160
2018-02-10T10:35:35.415Z,5080
2018-02-10T10:36:35.176Z,5060
2018-02-10T10:37:35.444Z,5076
2018-02-10T10:38:35.462Z,5064
2018-02-10T10:39:35.223Z,5028
2018-02-10T10:40:35.597Z,4988
2018-02-10T10:41:35.250Z,5004
2018-02-10T10:42:35.014Z,5076
2018-02-10T10:43:35.545Z,5088
2018-02-10T10:44:35.561Z,5060
2018-02-10T10:45:35.162Z,5000
2018-02-10T10:46:35.568Z,4888
2018-02-10T10:47:35.587Z,4740
2018-02-10T10:48:35.621Z,4576
2018-02-10T10:49:35.619Z,4448
2018-02-10T10:50:35.379Z,4368
2018-02-10T10:51:35.391Z,4348
2018-02-10T10:52:35.659Z,4388
2018-02-10T10:53:35.884Z,4476
2018-02-10T10:54:35.944Z,4624
2018-02-10T10:55:35.453Z,4796
2018-02-10T10:56:35.972Z,4980
2018-02-10T10:57:35.479Z,5196
2018-02-10T10:58:36.003Z,5480
2018-02-10T10:59:35.511Z,5744
2018-02-10T11:00:35.647Z,5884
2018-02-10T11:01:35.540Z,5924
2018-02-10T11:02:35.818Z,4772
2018-02-10T11:03:35.572Z,4584
2018-02-10T11:04:36.094Z,4636
2018-02-10T11:05:35.596Z,4608
2018-02-10T11:06:35.361Z,4644
2018-02-10T11:07:35.632Z,4736
2018-02-10T11:08:35.646Z,4780
2018-02-10T11:09:36.160Z,4812
2018-02-10T11:10:35.677Z,4872
2018-02-10T11:11:35.689Z,4932
2018-02-10T11:12:35.951Z,6184
2018-02-10T11:13:35.718Z,6324
2018-02-10T11:14:36.287Z,6464
2018-02-10T11:15:50.923Z,6624
2018-02-10T11:16:36.256Z,6764
2018-02-10T11:17:36.288Z,6972
2018-02-10T11:18:35.800Z,7064
2018-02-10T11:19:35.798Z,7052
2018-02-10T11:20:35.815Z,7056
2018-02-10T11:21:36.076Z,7124
2018-02-10T11:22:35.847Z,7228
2018-02-10T11:23:36.109Z,7356
2018-02-10T11:24:36.125Z,7472
2018-02-10T11:25:35.905Z,7504
2018-02-10T11:26:36.161Z,7572
2018-02-10T11:27:35.926Z,7756
2018-02-10T11:28:35.947Z,7920
2018-02-10T11:29:35.975Z,8012
2018-02-10T11:30:36.229Z,8072
2018-02-10T11:31:36.004Z,8116
2018-02-10T11:32:36.032Z,8092
2018-02-10T11:33:36.354Z,8028
2018-02-10T11:34:36.551Z,7892
2018-02-10T11:35:35.804Z,7684
2018-02-10T11:36:36.322Z,7508
2018-02-10T11:37:36.338Z,7336
2018-02-10T11:38:36.358Z,7200
2018-02-10T11:39:36.373Z,7104
2018-02-10T11:40:36.154Z,7012
2018-02-10T11:41:36.658Z,6928
2018-02-10T11:42:36.418Z,6852
2018-02-10T11:43:36.202Z,6772
2018-02-10T11:44:36.193Z,6700
2018-02-10T11:45:36.212Z,6624
2018-02-10T11:46:36.731Z,6536
2018-02-10T11:47:36.259Z,6448
2018-02-10T11:48:36.263Z,6360
2018-02-10T11:49:36.277Z,6276
2018-02-10T11:50:36.288Z,6204
2018-02-10T11:51:36.097Z,6148
2018-02-10T11:52:36.705Z,6104
2018-02-10T11:53:36.586Z,6064
2018-02-10T11:54:36.615Z,6044
2018-02-10T11:55:36.874Z,6012
2018-02-10T11:56:36.883Z,5996
2018-02-10T11:57:36.392Z,5948
2018-02-10T11:58:36.414Z,5896
2018-02-10T11:59:36.786Z,5796
2018-02-10T12:00:36.442Z,5636
2018-02-10T12:01:36.455Z,5504
2018-02-10T12:02:36.762Z,5340
2018-02-10T12:03:36.739Z,5204
2018-02-10T12:04:37.008Z,5084
2018-02-10T12:05:36.834Z,4996
2018-02-10T12:06:36.772Z,4944
2018-02-10T12:07:36.794Z,4928
2018-02-10T12:08:36.804Z,4948
2018-02-10T12:09:37.080Z,4980
2018-02-10T12:10:36.836Z,4984
2018-02-10T12:11:36.882Z,4964
2018-02-10T12:12:36.877Z,4948
2018-02-10T12:13:37.186Z,4940
2018-02-10T12:14:36.662Z,4968
2018-02-10T12:15:36.914Z,4984
2018-02-10T12:16:36.934Z,5004
2018-02-10T12:17:36.951Z,5028
2018-02-10T12:18:36.710Z,5096
2018-02-10T12:19:36.728Z,5176
2018-02-10T12:20:37.008Z,5276
2018-02-10T12:21:37.016Z,5364
2018-02-10T12:22:36.770Z,5448
2018-02-10T12:23:37.310Z,5584
2018-02-10T12:24:36.546Z,5788
2018-02-10T12:25:37.070Z,6020
2018-02-10T12:26:37.332Z,6336
2018-02-10T12:27:36.852Z,6700
2018-02-10T12:28:37.361Z,7076
2018-02-10T12:29:37.121Z,7320
2018-02-10T12:30:37.191Z,7464
2018-02-10T12:31:37.156Z,7516
2018-02-10T12:32:37.427Z,7616
2018-02-10T12:33:37.444Z,7720
2018-02-10T12:34:36.703Z,7756
2018-02-10T12:35:37.216Z,7820
2018-02-10T12:36:36.732Z,7984
2018-02-10T12:37:37.505Z,8220
2018-02-10T12:38:37.280Z,8548
2018-02-10T12:39:37.278Z,8672
2018-02-10T12:40:37.299Z,8820
2018-02-10T12:41:37.562Z,9160
2018-02-10T12:42:37.333Z,9616
2018-02-10T12:43:37.641Z,10208
2018-02-10T12:44:37.662Z,10924
2018-02-10T12:45:37.369Z,11592
2018-02-10T12:46:37.387Z,12256
2018-02-10T12:47:37.599Z,12768
2018-02-10T12:48:37.655Z,13080
2018-02-10T12:49:37.429Z,13556
2018-02-10T12:50:37.220Z,13960
2018-02-10T12:51:37.217Z,13716
2018-02-10T12:52:37.238Z,13244
2018-02-10T12:53:37.746Z,12720
2018-02-10T12:54:37.254Z,13428
2018-02-10T12:55:37.539Z,11236
2018-02-10T12:56:37.289Z,10520
2018-02-10T12:57:37.308Z,9812
2018-02-10T12:58:37.632Z,9176
2018-02-10T12:59:37.591Z,8748
2018-02-10T13:00:37.855Z,8492
2018-02-10T13:01:37.363Z,8388
2018-02-10T13:02:37.384Z,8276
2018-02-10T13:03:37.396Z,8160
2018-02-10T13:04:37.918Z,7976
2018-02-10T13:05:37.687Z,7772
2018-02-10T13:06:37.202Z,7580
2018-02-10T13:07:37.210Z,7428
2018-02-10T13:08:37.479Z,7296
2018-02-10T13:09:38.014Z,7156
2018-02-10T13:10:38.015Z,7012
2018-02-10T13:11:37.783Z,6896
2018-02-10T13:12:37.830Z,6828
2018-02-10T13:13:37.813Z,6768
2018-02-10T13:14:37.827Z,6704
2018-02-10T13:15:37.845Z,6660
2018-02-10T13:16:37.884Z,6620
2018-02-10T13:17:38.127Z,6576
2018-02-10T13:18:38.146Z,6496
2018-02-10T13:19:37.905Z,6436
2018-02-10T13:20:37.672Z,6468
2018-02-10T13:21:37.942Z,6540
2018-02-10T13:22:38.207Z,6620
2018-02-10T13:23:38.225Z,6776
2018-02-10T13:24:38.004Z,6944
2018-02-10T13:25:37.760Z,7064
2018-02-10T13:26:37.768Z,7112
2018-02-10T13:27:38.281Z,7164
2018-02-10T13:28:38.110Z,7212
2018-02-10T13:29:37.814Z,7176
2018-02-10T13:30:37.833Z,7080
2018-02-10T13:31:38.105Z,6056
2018-02-10T13:32:38.367Z,6040
2018-02-10T13:33:38.140Z,5940
2018-02-10T13:34:37.919Z,5812
2018-02-10T13:35:38.176Z,5444
2018-02-10T13:36:38.434Z,5024
2018-02-10T13:37:38.202Z,4772
2018-02-10T13:38:38.484Z,4524
2018-02-10T13:39:38.228Z,4332
2018-02-10T13:40:38.501Z,4148
2018-02-10T13:41:38.534Z,3904
2018-02-10T13:42:38.279Z,3896
2018-02-10T13:43:38.296Z,3676
2018-02-10T13:44:38.067Z,4896
2018-02-10T13:45:38.073Z,4948
2018-02-10T13:46:38.355Z,4916
2018-02-10T13:47:38.106Z,4928
2018-02-10T13:48:38.379Z,4976
2018-02-10T13:49:38.641Z,5056
2018-02-10T13:50:38.418Z,5044
2018-02-10T13:51:38.428Z,4944
2018-02-10T13:52:38.760Z,4832
2018-02-10T13:53:38.728Z,4716
2018-02-10T13:54:38.468Z,4628
2018-02-10T13:55:38.743Z,4584
2018-02-10T13:56:38.753Z,4560
2018-02-10T13:57:38.525Z,4564
2018-02-10T13:58:38.788Z,4580
2018-02-10T13:59:38.549Z,4512
2018-02-10T14:00:38.584Z,4364